Weather observations for the past three days for
San Diego International Airport
Imperial (Metric)
Date Time (pdt) Wind (mph) Vis. (mi.) Weather Sky Cond. Temperature (ºF) Relative Humidity Wind Chill (°F) Heat Index (°F) Pressure Precipitation (in)
Air Dwpt 6 hour altimeter (in) sea level (mb) 1 hr 3 hr 6 hr
Max. Min.
10 10:51 W 7 10.00 A Few Clouds FEW017 66.9 57 68 61 71% 29.96 1014.4
10 09:51 Vrbl 3 9.00 A Few Clouds FEW017 66 55.9 70% 29.95 1014.2
10 08:51 Calm 10.00 Mostly Cloudy BKN017 64.9 55 70% 29.94 1013.9
10 06:51 Calm 9.00 Overcast OVC013 62.1 55.9 80% 29.93 1013.3
10 05:51 NW 3 10.00 Overcast OVC012 61 55.9 84% 29.92 1013.0
10 04:51 SW 3 10.00 Overcast OVC011 61 55.9 63 61 84% 29.91 1012.9
10 03:51 Calm 10.00 Overcast OVC011 62.1 57 84% 29.92 1013.0
10 02:51 NW 3 10.00 Overcast OVC011 62.1 55.9 80% 29.92 1013.1
10 01:51 SW 5 10.00 Overcast OVC012 62.1 55.9 80% 29.93 1013.4
10 00:51 SW 5 10.00 Overcast OVC014 63 55.9 78% 29.94 1013.7
09 23:51 S 6 10.00 Overcast OVC014 63 55.9 78% 29.94 1013.9
09 22:51 Calm 10.00 Overcast OVC015 62.1 55.9 66.9 62.1 80% 29.95 1014.1
09 21:51 Calm 10.00 Mostly Cloudy BKN015 63 55.9 78% 29.95 1014.1
09 20:51 W 3 10.00 Mostly Cloudy BKN016 63 55.9 78% 29.94 1013.7
09 19:51 SW 5 10.00 Partly Cloudy SCT016 63 55.9 78% 29.92 1013.0
09 18:51 W 5 10.00 Partly Cloudy SCT017 64 55.9 75% 29.91 1012.7
09 17:51 SW 8 10.00 Partly Cloudy SCT015 64.9 55.9 73% 29.91 1012.8
09 16:51 SW 8 10.00 A Few Clouds FEW015 66.9 55.9 70 66.9 68% 29.9 1012.5
09 15:51 SW 8 10.00 A Few Clouds FEW015 68 55.9 65% 29.91 1012.8
09 14:51 W 8 10.00 A Few Clouds FEW015 68 55.9 65% 29.93 1013.3
09 13:51 Vrbl 7 10.00 A Few Clouds FEW015 68 55.9 65% 29.94 1013.7
09 12:51 Vrbl 6 10.00 A Few Clouds FEW015 69.1 55.9 63% 29.94 1013.8
09 11:51 W 7 10.00 A Few Clouds FEW015 68 55.9 65% 29.95 1014.0
09 10:51 SW 8 10.00 Partly Cloudy SCT015 66.9 55.9 66.9 61 68% 29.95 1014.2
09 09:51 Vrbl 5 10.00 Mostly Cloudy BKN015 66 55.9 70% 29.95 1014.2
09 08:51 SW 9 10.00 Overcast OVC014 63 57 81% 29.96 1014.4
09 07:51 W 6 10.00 Overcast OVC012 62.1 57 84% 29.96 1014.3
09 06:51 W 5 10.00 Overcast OVC011 62.1 57 84% 29.95 1014.2
09 05:51 W 6 10.00 Overcast OVC010 62.1 57 84% 29.94 1013.9
09 04:51 W 3 10.00 Overcast OVC011 62.1 57 64 62.1 84% 29.94 1013.8
09 03:51 NW 3 10.00 Overcast OVC011 62.1 57 84% 29.95 1014.0
09 02:51 Calm 10.00 Overcast OVC010 62.1 57 84% 29.95 1014.0
09 01:51 NW 3 10.00 Overcast OVC010 62.1 57.9 86% 29.96 1014.5
09 00:51 Calm 10.00 Overcast OVC011 63 57.9 84% 29.97 1014.7
08 23:51 NW 6 10.00 Overcast OVC011 63 57.9 84% 29.98 1015.2
08 22:51 W 5 10.00 Overcast OVC012 64 57.9 68 63 81% 29.99 1015.4
08 21:51 W 6 10.00 Overcast OVC011 64 57.9 81% 29.99 1015.4
08 20:51 NW 7 10.00 Mostly Cloudy BKN010 64 59 84% 29.98 1015.0
08 19:51 W 8 9.00 Mostly Cloudy BKN011 64 59 84% 29.96 1014.5
08 18:51 NW 6 10.00 Partly Cloudy SCT013 64.9 57.9 78% 29.95 1014.2
08 17:51 NW 7 10.00 Partly Cloudy SCT015 66.9 59 76% 29.95 1014.2
08 16:51 Vrbl 7 10.00 Partly Cloudy SCT016 69.1 57.9 70 66.9 68% 29.96 1014.4
08 15:51 W 7 10.00 A Few Clouds FEW015 68 57.9 70% 29.97 1014.7
08 14:51 W 12 10.00 A Few Clouds FEW015 69.1 57 66% 29.98 1015.3
08 13:51 W 8 10.00 A Few Clouds FEW015 69.1 57.9 68% 29.98 1015.2
08 12:51 NW 8 10.00 A Few Clouds FEW015 69.1 57.9 68% 29.99 1015.6
08 11:51 Vrbl 5 10.00 A Few Clouds FEW015 69.1 57 66% 30.01 1016.1
08 10:51 W 6 10.00 Partly Cloudy SCT019 68 57 68 62.1 68% 30.02 1016.5
08 09:51 NW 3 10.00 Overcast OVC014 64 57 78% 30.03 1016.9
08 08:51 Vrbl 3 9.00 Overcast OVC014 63 57 81% 30.04 1017.0
08 07:51 W 6 9.00 Overcast OVC013 62.1 57 84% 30.04 1017.1
08 06:51 Vrbl 3 9.00 Overcast OVC012 62.1 57 84% 30.03 1016.7
08 05:51 SW 6 10.00 Overcast OVC012 62.1 57 84% 30.01 1016.3
08 04:51 S 5 7.00 Overcast OVC011 62.1 57 64 62.1 84% 30.01 1016.2
08 03:51 SW 7 9.00 Overcast OVC012 62.1 57 84% 30.01 1016.2
08 02:51 SW 7 9.00 Overcast OVC011 64 57 78% 30.02 1016.4
08 01:51 SW 5 8.00 Overcast OVC011 63 57 81% 30.02 1016.5
08 00:51 SW 7 9.00 Overcast OVC012 63 57 81% 30.03 1017.0
07 23:51 S 5 10.00 Overcast OVC012 62.1 57 84% 30.04 1017.1
07 22:51 Calm 10.00 Overcast OVC013 63 57 66.9 63 81% 30.04 1017.3
07 21:51 S 5 10.00 Overcast OVC013 63 57 81% 30.04 1017.2
07 20:51 S 5 10.00 Overcast OVC014 63 57 81% 30.02 1016.4
07 19:51 NW 3 10.00 Partly Cloudy SCT014 63 57 81% 29.99 1015.7
07 18:51 NW 6 10.00 A Few Clouds FEW018 64.9 57 76% 29.98 1015.1
07 17:51 W 7 10.00 A Few Clouds FEW018 66 57 73% 29.98 1015.0
07 16:51 W 5 10.00 Partly Cloudy SCT018 66.9 55.9 69.1 66 68% 29.98 1015.2
07 15:51 W 7 10.00 Partly Cloudy SCT019 66.9 55.9 68% 29.98 1015.3
07 14:51 NW 9 G 20 10.00 Partly Cloudy SCT019 68 55.9 65% 30 1015.7
07 13:51 W 10 10.00 Partly Cloudy SCT020 68 55.9 65% 30.01 1016.2
07 12:51 W 12 10.00 Partly Cloudy SCT019 68 57 68% 30.02 1016.4
07 11:51 W 8 10.00 Partly Cloudy SCT019 68 55.9 65% 30.03 1016.7
Date Time (pdt) Wind (mph) Vis. (mi.) Weather Sky Cond. Air Dwpt Max. Min. Relative Humidity Wind Chill (°F) Heat Index (°F) altimeter (in) sea level (mb) 1 hr 3 hr 6 hr
6 hour
Temperature (ºF) Pressure Precipitation (in)